Flugwetter

[source: ADDS]
METAR
LOWL 142320Z AUTO 05005KT 3800 BR FEW001 BKN002 04/04 Q1029 =
TAF LOWL 142315Z 1500/1524 08004KT 0100 FG VV001 TX07/1514Z TN03/1506Z TEMPO 1500/1508 1500 BR BKN003 BECMG 1508/1510 09008KT 6000 NSW SCT003 BECMG 1510/1512 9999 FEW003 BECMG 1517/1520 6000 BKN008
TAF
TAF LOWL 142315Z 1500/1524 08004KT 0100 FG VV001 TX07/1514Z TN03/1506Z TEMPO 1500/1508 1500 BR BKN003 BECMG 1508/1510 09008KT 6000 NSW SCT003 BECMG 1510/1512 9999 FEW003 BECMG 1517/1520 6000 BKN008 =